Kalisz, Poland
Current Conditions -  °F | °C
As of 11:30 AM on Thursday 18 Dec 2014 (Local Time) from EPLL Reporting Station
Overcast Overcast  
Wind Chill: 34°   Ceiling: 600
Heat Index: 41°   Visibility: 5mi
Dew Point: 39°   Wind: 12mph
Humidity: 93%   Direction: 260°W
Pressure: 29.83"   Gusts: NA
Location:  51.77°N, 18.1°E
Report Text: EPLL 180930Z 26010KT 8000 OVC006 05/04 Q1010
Loading
Personal Weather Stations






























Interactive Weather Map New forecast layout! Learn more

10-Day Weather Forecast

Advertisements
Track Severe Weather on mobile